sensor_id;sensor_type;location;lat;lon;timestamp;P1;durP1;ratioP1;P2;durP2;ratioP2
37873;SDS011;23709;48.078;11.684;2023-09-19T00:02:08;4.47;;;1.25;;
37873;SDS011;23709;48.078;11.684;2023-09-19T00:04:41;3.33;;;1.60;;
37873;SDS011;23709;48.078;11.684;2023-09-19T00:07:14;2.40;;;1.30;;
37873;SDS011;23709;48.078;11.684;2023-09-19T00:09:47;3.10;;;1.25;;
37873;SDS011;23709;48.078;11.684;2023-09-19T00:12:20;3.20;;;1.40;;
37873;SDS011;23709;48.078;11.684;2023-09-19T00:14:52;2.73;;;1.47;;
37873;SDS011;23709;48.078;11.684;2023-09-19T00:17:25;2.47;;;1.60;;
37873;SDS011;23709;48.078;11.684;2023-09-19T00:19:57;4.95;;;1.48;;
37873;SDS011;23709;48.078;11.684;2023-09-19T00:22:29;3.10;;;1.40;;
37873;SDS011;23709;48.078;11.684;2023-09-19T00:25:02;4.15;;;1.52;;
37873;SDS011;23709;48.078;11.684;2023-09-19T00:27:34;3.28;;;1.65;;
37873;SDS011;23709;48.078;11.684;2023-09-19T00:30:08;3.63;;;1.40;;
37873;SDS011;23709;48.078;11.684;2023-09-19T00:32:46;5.95;;;1.65;;
37873;SDS011;23709;48.078;11.684;2023-09-19T00:35:20;2.65;;;1.17;;
37873;SDS011;23709;48.078;11.684;2023-09-19T00:37:56;3.40;;;1.33;;
37873;SDS011;23709;48.078;11.684;2023-09-19T00:40:28;3.63;;;1.52;;
37873;SDS011;23709;48.078;11.684;2023-09-19T00:43:02;7.45;;;1.90;;
37873;SDS011;23709;48.078;11.684;2023-09-19T00:45:35;2.25;;;1.35;;
37873;SDS011;23709;48.078;11.684;2023-09-19T00:48:10;3.15;;;1.30;;
37873;SDS011;23709;48.078;11.684;2023-09-19T00:50:44;5.43;;;1.90;;
37873;SDS011;23709;48.078;11.684;2023-09-19T00:53:20;4.65;;;1.52;;
37873;SDS011;23709;48.078;11.684;2023-09-19T00:55:55;3.85;;;1.80;;
37873;SDS011;23709;48.078;11.684;2023-09-19T00:58:28;5.53;;;1.57;;
37873;SDS011;23709;48.078;11.684;2023-09-19T01:01:06;2.75;;;1.42;;
37873;SDS011;23709;48.078;11.684;2023-09-19T01:03:40;4.13;;;1.67;;
37873;SDS011;23709;48.078;11.684;2023-09-19T01:06:14;2.28;;;1.60;;
37873;SDS011;23709;48.078;11.684;2023-09-19T01:08:47;4.18;;;1.92;;
37873;SDS011;23709;48.078;11.684;2023-09-19T01:17:17;3.78;;;1.35;;
37873;SDS011;23709;48.078;11.684;2023-09-19T01:20:01;1.60;;;1.40;;
37873;SDS011;23709;48.078;11.684;2023-09-19T01:22:42;4.93;;;1.70;;
37873;SDS011;23709;48.078;11.684;2023-09-19T01:32:11;5.95;;;1.60;;
37873;SDS011;23709;48.078;11.684;2023-09-19T01:34:53;4.88;;;1.42;;
37873;SDS011;23709;48.078;11.684;2023-09-19T01:37:30;3.25;;;1.50;;
37873;SDS011;23709;48.078;11.684;2023-09-19T01:40:04;1.90;;;1.40;;
37873;SDS011;23709;48.078;11.684;2023-09-19T01:42:58;2.08;;;1.27;;
37873;SDS011;23709;48.078;11.684;2023-09-19T01:45:44;2.55;;;1.50;;
37873;SDS011;23709;48.078;11.684;2023-09-19T01:51:34;3.30;;;1.45;;
37873;SDS011;23709;48.078;11.684;2023-09-19T01:54:24;3.17;;;1.50;;
37873;SDS011;23709;48.078;11.684;2023-09-19T01:57:07;4.43;;;1.73;;
37873;SDS011;23709;48.078;11.684;2023-09-19T01:59:50;3.72;;;1.20;;
37873;SDS011;23709;48.078;11.684;2023-09-19T02:02:29;1.90;;;1.10;;
37873;SDS011;23709;48.078;11.684;2023-09-19T02:05:03;2.63;;;1.38;;
37873;SDS011;23709;48.078;11.684;2023-09-19T02:07:36;3.13;;;1.38;;
37873;SDS011;23709;48.078;11.684;2023-09-19T02:10:10;2.20;;;1.27;;
37873;SDS011;23709;48.078;11.684;2023-09-19T02:12:44;2.20;;;1.40;;
37873;SDS011;23709;48.078;11.684;2023-09-19T02:15:18;4.18;;;1.67;;
37873;SDS011;23709;48.078;11.684;2023-09-19T02:17:50;3.15;;;1.30;;
37873;SDS011;23709;48.078;11.684;2023-09-19T02:20:23;2.45;;;1.55;;
37873;SDS011;23709;48.078;11.684;2023-09-19T02:22:56;3.85;;;1.40;;
37873;SDS011;23709;48.078;11.684;2023-09-19T02:25:29;3.58;;;1.63;;
37873;SDS011;23709;48.078;11.684;2023-09-19T02:28:02;5.57;;;1.48;;
37873;SDS011;23709;48.078;11.684;2023-09-19T02:30:35;2.53;;;1.05;;
37873;SDS011;23709;48.078;11.684;2023-09-19T02:33:08;3.53;;;1.45;;
37873;SDS011;23709;48.078;11.684;2023-09-19T02:35:40;5.63;;;1.40;;
37873;SDS011;23709;48.078;11.684;2023-09-19T02:40:50;2.33;;;1.40;;
37873;SDS011;23709;48.078;11.684;2023-09-19T02:43:23;2.72;;;1.45;;
37873;SDS011;23709;48.078;11.684;2023-09-19T02:45:55;5.20;;;1.80;;
37873;SDS011;23709;48.078;11.684;2023-09-19T02:48:28;4.45;;;1.70;;
37873;SDS011;23709;48.078;11.684;2023-09-19T02:51:01;2.88;;;1.40;;
37873;SDS011;23709;48.078;11.684;2023-09-19T02:53:37;2.88;;;1.42;;
37873;SDS011;23709;48.078;11.684;2023-09-19T02:56:11;4.28;;;1.55;;
37873;SDS011;23709;48.078;11.684;2023-09-19T02:58:46;3.83;;;1.63;;
37873;SDS011;23709;48.078;11.684;2023-09-19T03:01:20;3.15;;;1.85;;
37873;SDS011;23709;48.078;11.684;2023-09-19T03:03:54;3.15;;;1.70;;
37873;SDS011;23709;48.078;11.684;2023-09-19T03:06:27;6.65;;;2.97;;
37873;SDS011;23709;48.078;11.684;2023-09-19T03:09:03;4.45;;;1.80;;
37873;SDS011;23709;48.078;11.684;2023-09-19T03:11:38;4.82;;;1.80;;
37873;SDS011;23709;48.078;11.684;2023-09-19T03:14:12;3.88;;;1.88;;
37873;SDS011;23709;48.078;11.684;2023-09-19T03:16:47;2.47;;;1.80;;
37873;SDS011;23709;48.078;11.684;2023-09-19T03:19:20;6.53;;;1.77;;
37873;SDS011;23709;48.078;11.684;2023-09-19T03:21:54;5.03;;;1.45;;
37873;SDS011;23709;48.078;11.684;2023-09-19T03:24:30;2.95;;;1.67;;
37873;SDS011;23709;48.078;11.684;2023-09-19T03:27:04;4.07;;;1.67;;
37873;SDS011;23709;48.078;11.684;2023-09-19T03:29:37;4.35;;;1.95;;
37873;SDS011;23709;48.078;11.684;2023-09-19T03:32:11;2.97;;;1.50;;
37873;SDS011;23709;48.078;11.684;2023-09-19T03:34:45;2.08;;;1.30;;
37873;SDS011;23709;48.078;11.684;2023-09-19T03:37:21;2.65;;;1.73;;
37873;SDS011;23709;48.078;11.684;2023-09-19T03:39:54;3.60;;;1.85;;
37873;SDS011;23709;48.078;11.684;2023-09-19T03:42:28;2.50;;;1.67;;
37873;SDS011;23709;48.078;11.684;2023-09-19T03:45:00;4.47;;;1.47;;
37873;SDS011;23709;48.078;11.684;2023-09-19T03:47:38;4.03;;;1.63;;
37873;SDS011;23709;48.078;11.684;2023-09-19T03:50:14;3.08;;;1.52;;
37873;SDS011;23709;48.078;11.684;2023-09-19T03:52:50;3.97;;;2.47;;
37873;SDS011;23709;48.078;11.684;2023-09-19T03:55:28;3.63;;;2.20;;
37873;SDS011;23709;48.078;11.684;2023-09-19T03:58:05;2.67;;;1.70;;
37873;SDS011;23709;48.078;11.684;2023-09-19T04:00:39;6.00;;;1.52;;
37873;SDS011;23709;48.078;11.684;2023-09-19T04:03:11;5.20;;;1.98;;
37873;SDS011;23709;48.078;11.684;2023-09-19T04:05:51;3.38;;;1.83;;
37873;SDS011;23709;48.078;11.684;2023-09-19T04:08:24;2.50;;;1.75;;
37873;SDS011;23709;48.078;11.684;2023-09-19T04:10:56;4.80;;;1.90;;
37873;SDS011;23709;48.078;11.684;2023-09-19T04:13:28;2.42;;;1.77;;
37873;SDS011;23709;48.078;11.684;2023-09-19T04:16:02;5.63;;;1.70;;
37873;SDS011;23709;48.078;11.684;2023-09-19T04:18:39;4.07;;;1.70;;
37873;SDS011;23709;48.078;11.684;2023-09-19T04:21:13;3.30;;;1.70;;
37873;SDS011;23709;48.078;11.684;2023-09-19T04:23:45;4.30;;;1.70;;
37873;SDS011;23709;48.078;11.684;2023-09-19T04:26:19;2.55;;;1.60;;
37873;SDS011;23709;48.078;11.684;2023-09-19T04:28:51;3.05;;;1.48;;
37873;SDS011;23709;48.078;11.684;2023-09-19T04:31:24;2.72;;;1.77;;
37873;SDS011;23709;48.078;11.684;2023-09-19T04:33:57;2.80;;;2.10;;
37873;SDS011;23709;48.078;11.684;2023-09-19T04:36:31;4.13;;;1.90;;
37873;SDS011;23709;48.078;11.684;2023-09-19T04:39:06;4.28;;;1.83;;
37873;SDS011;23709;48.078;11.684;2023-09-19T04:41:39;3.97;;;2.30;;
37873;SDS011;23709;48.078;11.684;2023-09-19T04:44:12;5.40;;;1.88;;
37873;SDS011;23709;48.078;11.684;2023-09-19T04:46:45;4.75;;;1.67;;
37873;SDS011;23709;48.078;11.684;2023-09-19T04:49:20;4.10;;;1.88;;
37873;SDS011;23709;48.078;11.684;2023-09-19T04:51:53;4.97;;;2.05;;
37873;SDS011;23709;48.078;11.684;2023-09-19T04:54:25;3.20;;;1.50;;
37873;SDS011;23709;48.078;11.684;2023-09-19T04:56:59;3.70;;;2.00;;
37873;SDS011;23709;48.078;11.684;2023-09-19T05:02:04;5.22;;;1.50;;
37873;SDS011;23709;48.078;11.684;2023-09-19T05:04:37;6.85;;;1.85;;
37873;SDS011;23709;48.078;11.684;2023-09-19T05:07:10;3.50;;;1.77;;
37873;SDS011;23709;48.078;11.684;2023-09-19T05:09:43;7.22;;;1.75;;
37873;SDS011;23709;48.078;11.684;2023-09-19T05:12:15;3.30;;;2.25;;
37873;SDS011;23709;48.078;11.684;2023-09-19T05:14:50;3.45;;;1.63;;
37873;SDS011;23709;48.078;11.684;2023-09-19T05:17:22;3.40;;;1.50;;
37873;SDS011;23709;48.078;11.684;2023-09-19T05:19:57;3.78;;;1.85;;
37873;SDS011;23709;48.078;11.684;2023-09-19T05:22:43;3.30;;;1.80;;
37873;SDS011;23709;48.078;11.684;2023-09-19T05:25:18;3.17;;;1.35;;
37873;SDS011;23709;48.078;11.684;2023-09-19T05:27:53;10.73;;;1.58;;
37873;SDS011;23709;48.078;11.684;2023-09-19T05:30:26;2.30;;;1.50;;
37873;SDS011;23709;48.078;11.684;2023-09-19T05:33:02;4.10;;;1.40;;
37873;SDS011;23709;48.078;11.684;2023-09-19T05:35:36;1.55;;;1.20;;
37873;SDS011;23709;48.078;11.684;2023-09-19T05:38:13;3.55;;;1.40;;
37873;SDS011;23709;48.078;11.684;2023-09-19T05:40:51;3.47;;;1.40;;
37873;SDS011;23709;48.078;11.684;2023-09-19T05:43:23;2.28;;;1.30;;
37873;SDS011;23709;48.078;11.684;2023-09-19T05:45:56;2.45;;;1.25;;
37873;SDS011;23709;48.078;11.684;2023-09-19T05:48:29;4.43;;;1.10;;
37873;SDS011;23709;48.078;11.684;2023-09-19T05:51:01;3.10;;;1.30;;
37873;SDS011;23709;48.078;11.684;2023-09-19T05:53:34;3.15;;;1.55;;
37873;SDS011;23709;48.078;11.684;2023-09-19T05:56:06;4.23;;;1.63;;
37873;SDS011;23709;48.078;11.684;2023-09-19T05:58:39;2.53;;;1.50;;
37873;SDS011;23709;48.078;11.684;2023-09-19T06:01:12;3.53;;;1.30;;
37873;SDS011;23709;48.078;11.684;2023-09-19T06:03:45;4.27;;;1.03;;
37873;SDS011;23709;48.078;11.684;2023-09-19T06:06:18;1.75;;;1.23;;
37873;SDS011;23709;48.078;11.684;2023-09-19T06:08:51;6.47;;;1.45;;
37873;SDS011;23709;48.078;11.684;2023-09-19T06:11:24;2.85;;;1.30;;
37873;SDS011;23709;48.078;11.684;2023-09-19T06:13:58;3.38;;;1.60;;
37873;SDS011;23709;48.078;11.684;2023-09-19T06:16:32;1.45;;;1.20;;
37873;SDS011;23709;48.078;11.684;2023-09-19T06:19:04;3.27;;;1.50;;
37873;SDS011;23709;48.078;11.684;2023-09-19T06:21:40;4.47;;;1.35;;
37873;SDS011;23709;48.078;11.684;2023-09-19T06:24:13;1.58;;;1.25;;
37873;SDS011;23709;48.078;11.684;2023-09-19T06:26:46;1.63;;;1.27;;
37873;SDS011;23709;48.078;11.684;2023-09-19T06:29:19;1.83;;;1.23;;
37873;SDS011;23709;48.078;11.684;2023-09-19T06:31:52;5.00;;;1.60;;
37873;SDS011;23709;48.078;11.684;2023-09-19T06:34:25;7.13;;;1.23;;
37873;SDS011;23709;48.078;11.684;2023-09-19T06:36:57;2.45;;;1.02;;
37873;SDS011;23709;48.078;11.684;2023-09-19T06:39:30;1.70;;;1.10;;
37873;SDS011;23709;48.078;11.684;2023-09-19T06:42:03;5.20;;;1.55;;
37873;SDS011;23709;48.078;11.684;2023-09-19T06:44:36;6.00;;;1.40;;
37873;SDS011;23709;48.078;11.684;2023-09-19T06:47:08;2.58;;;1.35;;
37873;SDS011;23709;48.078;11.684;2023-09-19T06:49:42;4.00;;;1.25;;
37873;SDS011;23709;48.078;11.684;2023-09-19T06:52:16;2.55;;;1.45;;
37873;SDS011;23709;48.078;11.684;2023-09-19T06:54:49;2.33;;;1.13;;
37873;SDS011;23709;48.078;11.684;2023-09-19T06:57:22;2.70;;;1.20;;
37873;SDS011;23709;48.078;11.684;2023-09-19T06:59:54;1.50;;;0.90;;
37873;SDS011;23709;48.078;11.684;2023-09-19T07:02:27;2.03;;;1.30;;
37873;SDS011;23709;48.078;11.684;2023-09-19T07:04:59;3.80;;;1.30;;
37873;SDS011;23709;48.078;11.684;2023-09-19T07:07:32;2.20;;;1.10;;
37873;SDS011;23709;48.078;11.684;2023-09-19T07:10:06;2.15;;;1.17;;
37873;SDS011;23709;48.078;11.684;2023-09-19T07:12:42;1.85;;;1.38;;
37873;SDS011;23709;48.078;11.684;2023-09-19T07:15:15;2.17;;;1.13;;
37873;SDS011;23709;48.078;11.684;2023-09-19T07:17:47;2.50;;;1.50;;
37873;SDS011;23709;48.078;11.684;2023-09-19T07:20:20;3.38;;;1.10;;
37873;SDS011;23709;48.078;11.684;2023-09-19T07:22:52;2.17;;;1.00;;
37873;SDS011;23709;48.078;11.684;2023-09-19T07:25:28;3.33;;;1.42;;
37873;SDS011;23709;48.078;11.684;2023-09-19T07:28:01;2.80;;;1.05;;
37873;SDS011;23709;48.078;11.684;2023-09-19T07:30:35;2.20;;;1.30;;
37873;SDS011;23709;48.078;11.684;2023-09-19T07:33:13;2.00;;;1.23;;
37873;SDS011;23709;48.078;11.684;2023-09-19T07:35:46;3.83;;;1.25;;
37873;SDS011;23709;48.078;11.684;2023-09-19T07:38:19;3.63;;;1.35;;
37873;SDS011;23709;48.078;11.684;2023-09-19T07:40:53;3.83;;;1.35;;
37873;SDS011;23709;48.078;11.684;2023-09-19T07:43:31;2.58;;;1.55;;
37873;SDS011;23709;48.078;11.684;2023-09-19T07:46:05;1.58;;;1.10;;
37873;SDS011;23709;48.078;11.684;2023-09-19T07:48:39;5.05;;;1.38;;
37873;SDS011;23709;48.078;11.684;2023-09-19T07:53:47;3.70;;;1.10;;
37873;SDS011;23709;48.078;11.684;2023-09-19T07:56:20;2.72;;;1.52;;
37873;SDS011;23709;48.078;11.684;2023-09-19T07:58:54;2.75;;;1.30;;
37873;SDS011;23709;48.078;11.684;2023-09-19T08:01:29;3.55;;;1.40;;
37873;SDS011;23709;48.078;11.684;2023-09-19T08:04:02;3.90;;;1.10;;
37873;SDS011;23709;48.078;11.684;2023-09-19T08:06:34;3.00;;;1.17;;
37873;SDS011;23709;48.078;11.684;2023-09-19T08:09:09;3.88;;;1.60;;
37873;SDS011;23709;48.078;11.684;2023-09-19T08:11:43;4.55;;;1.17;;
37873;SDS011;23709;48.078;11.684;2023-09-19T08:14:16;2.97;;;1.35;;
37873;SDS011;23709;48.078;11.684;2023-09-19T08:16:48;5.03;;;1.27;;
37873;SDS011;23709;48.078;11.684;2023-09-19T08:19:21;2.70;;;1.40;;
37873;SDS011;23709;48.078;11.684;2023-09-19T08:21:55;5.30;;;1.30;;
37873;SDS011;23709;48.078;11.684;2023-09-19T08:24:34;1.83;;;1.10;;
37873;SDS011;23709;48.078;11.684;2023-09-19T08:27:06;2.30;;;1.30;;
37873;SDS011;23709;48.078;11.684;2023-09-19T08:29:41;1.77;;;0.95;;
37873;SDS011;23709;48.078;11.684;2023-09-19T08:32:14;3.75;;;1.20;;
37873;SDS011;23709;48.078;11.684;2023-09-19T08:34:46;3.75;;;1.42;;
37873;SDS011;23709;48.078;11.684;2023-09-19T08:37:19;4.05;;;1.10;;
37873;SDS011;23709;48.078;11.684;2023-09-19T08:39:52;3.40;;;1.40;;
37873;SDS011;23709;48.078;11.684;2023-09-19T08:42:24;1.75;;;1.08;;
37873;SDS011;23709;48.078;11.684;2023-09-19T08:44:57;2.17;;;1.00;;
37873;SDS011;23709;48.078;11.684;2023-09-19T08:47:37;1.60;;;1.10;;
37873;SDS011;23709;48.078;11.684;2023-09-19T08:50:27;4.70;;;1.30;;
37873;SDS011;23709;48.078;11.684;2023-09-19T08:53:01;2.55;;;1.17;;
37873;SDS011;23709;48.078;11.684;2023-09-19T08:55:37;2.60;;;1.20;;
37873;SDS011;23709;48.078;11.684;2023-09-19T08:58:13;1.98;;;0.90;;
37873;SDS011;23709;48.078;11.684;2023-09-19T09:00:53;2.08;;;1.00;;
37873;SDS011;23709;48.078;11.684;2023-09-19T09:03:29;2.35;;;1.02;;
37873;SDS011;23709;48.078;11.684;2023-09-19T09:06:06;3.60;;;1.30;;
37873;SDS011;23709;48.078;11.684;2023-09-19T09:08:43;2.35;;;1.10;;
37873;SDS011;23709;48.078;11.684;2023-09-19T09:11:16;3.47;;;1.10;;
37873;SDS011;23709;48.078;11.684;2023-09-19T09:13:49;1.45;;;0.98;;
37873;SDS011;23709;48.078;11.684;2023-09-19T09:16:22;2.53;;;1.17;;
37873;SDS011;23709;48.078;11.684;2023-09-19T09:18:58;3.58;;;1.20;;
37873;SDS011;23709;48.078;11.684;2023-09-19T09:21:32;1.98;;;1.02;;
37873;SDS011;23709;48.078;11.684;2023-09-19T09:24:29;2.40;;;1.17;;
37873;SDS011;23709;48.078;11.684;2023-09-19T09:27:03;4.63;;;1.20;;
37873;SDS011;23709;48.078;11.684;2023-09-19T09:29:44;1.65;;;0.80;;
37873;SDS011;23709;48.078;11.684;2023-09-19T09:32:27;2.55;;;1.30;;
37873;SDS011;23709;48.078;11.684;2023-09-19T09:35:01;2.20;;;1.10;;
37873;SDS011;23709;48.078;11.684;2023-09-19T09:37:41;2.60;;;1.30;;
37873;SDS011;23709;48.078;11.684;2023-09-19T09:40:15;3.38;;;1.23;;
37873;SDS011;23709;48.078;11.684;2023-09-19T09:42:47;3.13;;;1.02;;
37873;SDS011;23709;48.078;11.684;2023-09-19T09:45:24;2.58;;;1.10;;
37873;SDS011;23709;48.078;11.684;2023-09-19T09:48:05;1.98;;;1.40;;
37873;SDS011;23709;48.078;11.684;2023-09-19T09:50:50;1.83;;;1.00;;
37873;SDS011;23709;48.078;11.684;2023-09-19T09:53:23;2.95;;;1.10;;
37873;SDS011;23709;48.078;11.684;2023-09-19T09:56:06;1.80;;;1.30;;
37873;SDS011;23709;48.078;11.684;2023-09-19T09:58:49;4.30;;;1.55;;
37873;SDS011;23709;48.078;11.684;2023-09-19T10:01:27;4.65;;;1.30;;
37873;SDS011;23709;48.078;11.684;2023-09-19T10:04:28;2.15;;;1.08;;
37873;SDS011;23709;48.078;11.684;2023-09-19T10:07:08;2.40;;;1.10;;
37873;SDS011;23709;48.078;11.684;2023-09-19T10:09:49;4.63;;;1.52;;
37873;SDS011;23709;48.078;11.684;2023-09-19T10:12:23;4.35;;;1.30;;
37873;SDS011;23709;48.078;11.684;2023-09-19T10:14:59;1.67;;;1.15;;
37873;SDS011;23709;48.078;11.684;2023-09-19T10:17:34;2.30;;;1.35;;
37873;SDS011;23709;48.078;11.684;2023-09-19T10:20:10;2.22;;;1.40;;
37873;SDS011;23709;48.078;11.684;2023-09-19T10:23:09;3.60;;;1.30;;
37873;SDS011;23709;48.078;11.684;2023-09-19T10:25:45;3.22;;;1.67;;
37873;SDS011;23709;48.078;11.684;2023-09-19T10:28:19;3.90;;;1.55;;
37873;SDS011;23709;48.078;11.684;2023-09-19T10:30:56;3.33;;;1.13;;
37873;SDS011;23709;48.078;11.684;2023-09-19T10:33:32;4.32;;;1.50;;
37873;SDS011;23709;48.078;11.684;2023-09-19T10:36:10;2.55;;;1.15;;
37873;SDS011;23709;48.078;11.684;2023-09-19T10:38:44;3.17;;;1.20;;
37873;SDS011;23709;48.078;11.684;2023-09-19T10:41:18;2.42;;;1.45;;
37873;SDS011;23709;48.078;11.684;2023-09-19T10:43:55;2.20;;;1.30;;
37873;SDS011;23709;48.078;11.684;2023-09-19T10:46:31;3.13;;;1.40;;
37873;SDS011;23709;48.078;11.684;2023-09-19T10:49:07;4.65;;;1.27;;
37873;SDS011;23709;48.078;11.684;2023-09-19T10:51:46;1.63;;;1.10;;
37873;SDS011;23709;48.078;11.684;2023-09-19T10:54:22;3.67;;;1.40;;
37873;SDS011;23709;48.078;11.684;2023-09-19T10:56:58;1.70;;;1.25;;
37873;SDS011;23709;48.078;11.684;2023-09-19T10:59:32;3.05;;;1.13;;
37873;SDS011;23709;48.078;11.684;2023-09-19T11:02:16;3.35;;;1.30;;
37873;SDS011;23709;48.078;11.684;2023-09-19T11:04:50;4.88;;;1.52;;
37873;SDS011;23709;48.078;11.684;2023-09-19T11:07:25;2.08;;;1.45;;
37873;SDS011;23709;48.078;11.684;2023-09-19T11:10:00;3.42;;;1.45;;
37873;SDS011;23709;48.078;11.684;2023-09-19T11:27:10;2.47;;;1.30;;
37873;SDS011;23709;48.078;11.684;2023-09-19T11:49:28;2.28;;;0.82;;
37873;SDS011;23709;48.078;11.684;2023-09-19T11:52:04;2.30;;;0.85;;
37873;SDS011;23709;48.078;11.684;2023-09-19T11:54:37;2.78;;;0.95;;
37873;SDS011;23709;48.078;11.684;2023-09-19T11:57:13;3.42;;;1.10;;
37873;SDS011;23709;48.078;11.684;2023-09-19T11:59:52;0.98;;;0.73;;
37873;SDS011;23709;48.078;11.684;2023-09-19T12:02:38;3.03;;;1.10;;
37873;SDS011;23709;48.078;11.684;2023-09-19T12:05:12;2.92;;;1.10;;
37873;SDS011;23709;48.078;11.684;2023-09-19T12:07:45;1.48;;;1.05;;
37873;SDS011;23709;48.078;11.684;2023-09-19T12:10:22;1.40;;;0.90;;
37873;SDS011;23709;48.078;11.684;2023-09-19T12:12:58;2.03;;;0.80;;
37873;SDS011;23709;48.078;11.684;2023-09-19T12:15:31;3.28;;;1.20;;
37873;SDS011;23709;48.078;11.684;2023-09-19T12:18:25;1.50;;;1.08;;
37873;SDS011;23709;48.078;11.684;2023-09-19T12:21:01;1.60;;;0.90;;
37873;SDS011;23709;48.078;11.684;2023-09-19T12:26:10;3.60;;;0.93;;
37873;SDS011;23709;48.078;11.684;2023-09-19T12:28:44;5.28;;;1.10;;
37873;SDS011;23709;48.078;11.684;2023-09-19T12:31:18;4.35;;;0.90;;
37873;SDS011;23709;48.078;11.684;2023-09-19T12:33:54;2.55;;;1.05;;
37873;SDS011;23709;48.078;11.684;2023-09-19T12:36:27;2.92;;;1.20;;
37873;SDS011;23709;48.078;11.684;2023-09-19T12:39:04;1.40;;;1.00;;
37873;SDS011;23709;48.078;11.684;2023-09-19T12:41:41;2.28;;;1.00;;
37873;SDS011;23709;48.078;11.684;2023-09-19T12:44:14;3.03;;;1.33;;
37873;SDS011;23709;48.078;11.684;2023-09-19T12:46:48;4.40;;;1.10;;
37873;SDS011;23709;48.078;11.684;2023-09-19T12:49:21;2.58;;;1.23;;
37873;SDS011;23709;48.078;11.684;2023-09-19T12:51:55;1.85;;;0.98;;
37873;SDS011;23709;48.078;11.684;2023-09-19T12:54:48;1.95;;;1.10;;
37873;SDS011;23709;48.078;11.684;2023-09-19T12:57:23;2.47;;;1.10;;
37873;SDS011;23709;48.078;11.684;2023-09-19T13:00:03;1.85;;;1.02;;
37873;SDS011;23709;48.078;11.684;2023-09-19T13:05:50;1.58;;;1.00;;
37873;SDS011;23709;48.078;11.684;2023-09-19T13:08:27;3.28;;;0.95;;
37873;SDS011;23709;48.078;11.684;2023-09-19T13:13:46;2.08;;;0.90;;
37873;SDS011;23709;48.078;11.684;2023-09-19T13:16:53;1.73;;;1.13;;
37873;SDS011;23709;48.078;11.684;2023-09-19T13:19:37;4.57;;;1.00;;
37873;SDS011;23709;48.078;11.684;2023-09-19T13:25:12;2.25;;;1.00;;
37873;SDS011;23709;48.078;11.684;2023-09-19T13:27:50;1.58;;;1.00;;
37873;SDS011;23709;48.078;11.684;2023-09-19T13:30:26;1.88;;;1.10;;
37873;SDS011;23709;48.078;11.684;2023-09-19T13:33:04;1.60;;;1.02;;
37873;SDS011;23709;48.078;11.684;2023-09-19T13:35:39;1.50;;;1.08;;
37873;SDS011;23709;48.078;11.684;2023-09-19T13:38:13;1.70;;;1.30;;
37873;SDS011;23709;48.078;11.684;2023-09-19T13:40:47;1.50;;;1.10;;
37873;SDS011;23709;48.078;11.684;2023-09-19T13:43:23;2.22;;;1.27;;
37873;SDS011;23709;48.078;11.684;2023-09-19T13:45:57;1.60;;;1.17;;
37873;SDS011;23709;48.078;11.684;2023-09-19T13:48:30;2.42;;;1.20;;
37873;SDS011;23709;48.078;11.684;2023-09-19T13:51:03;2.22;;;1.30;;
37873;SDS011;23709;48.078;11.684;2023-09-19T13:53:35;3.78;;;1.38;;
37873;SDS011;23709;48.078;11.684;2023-09-19T13:56:09;3.15;;;1.27;;
37873;SDS011;23709;48.078;11.684;2023-09-19T13:58:43;1.30;;;1.20;;
37873;SDS011;23709;48.078;11.684;2023-09-19T14:03:49;1.63;;;1.10;;
37873;SDS011;23709;48.078;11.684;2023-09-19T14:06:24;2.85;;;1.17;;
37873;SDS011;23709;48.078;11.684;2023-09-19T14:08:58;2.10;;;1.20;;
37873;SDS011;23709;48.078;11.684;2023-09-19T14:11:33;2.17;;;1.10;;
37873;SDS011;23709;48.078;11.684;2023-09-19T14:14:09;3.30;;;1.15;;
37873;SDS011;23709;48.078;11.684;2023-09-19T14:16:41;2.42;;;0.95;;
37873;SDS011;23709;48.078;11.684;2023-09-19T14:19:14;1.23;;;0.90;;
37873;SDS011;23709;48.078;11.684;2023-09-19T14:21:47;3.22;;;1.10;;
37873;SDS011;23709;48.078;11.684;2023-09-19T14:24:21;1.02;;;0.93;;
37873;SDS011;23709;48.078;11.684;2023-09-19T14:26:53;1.02;;;0.90;;
37873;SDS011;23709;48.078;11.684;2023-09-19T14:29:26;1.03;;;0.90;;
37873;SDS011;23709;48.078;11.684;2023-09-19T14:31:58;1.57;;;1.03;;
37873;SDS011;23709;48.078;11.684;2023-09-19T14:37:03;3.58;;;1.30;;
37873;SDS011;23709;48.078;11.684;2023-09-19T14:39:35;3.65;;;1.00;;
37873;SDS011;23709;48.078;11.684;2023-09-19T14:42:10;1.48;;;0.80;;
37873;SDS011;23709;48.078;11.684;2023-09-19T14:44:43;2.63;;;1.00;;
37873;SDS011;23709;48.078;11.684;2023-09-19T14:49:49;1.90;;;1.20;;
37873;SDS011;23709;48.078;11.684;2023-09-19T14:52:22;2.08;;;1.05;;
37873;SDS011;23709;48.078;11.684;2023-09-19T14:54:55;3.38;;;0.90;;
37873;SDS011;23709;48.078;11.684;2023-09-19T14:57:28;1.40;;;0.82;;
37873;SDS011;23709;48.078;11.684;2023-09-19T15:00:01;1.00;;;0.70;;
37873;SDS011;23709;48.078;11.684;2023-09-19T15:02:38;1.02;;;0.70;;
37873;SDS011;23709;48.078;11.684;2023-09-19T15:05:13;0.90;;;0.70;;
37873;SDS011;23709;48.078;11.684;2023-09-19T15:07:50;0.73;;;0.60;;
37873;SDS011;23709;48.078;11.684;2023-09-19T15:10:23;1.00;;;0.70;;
37873;SDS011;23709;48.078;11.684;2023-09-19T15:12:56;0.73;;;0.73;;
37873;SDS011;23709;48.078;11.684;2023-09-19T15:15:31;1.30;;;0.70;;
37873;SDS011;23709;48.078;11.684;2023-09-19T15:18:05;2.05;;;0.93;;
37873;SDS011;23709;48.078;11.684;2023-09-19T15:20:46;2.05;;;1.20;;
37873;SDS011;23709;48.078;11.684;2023-09-19T15:23:20;2.42;;;0.60;;
37873;SDS011;23709;48.078;11.684;2023-09-19T15:26:06;0.98;;;0.55;;
37873;SDS011;23709;48.078;11.684;2023-09-19T15:28:44;0.90;;;0.50;;
37873;SDS011;23709;48.078;11.684;2023-09-19T15:31:17;1.67;;;0.95;;
37873;SDS011;23709;48.078;11.684;2023-09-19T15:33:50;1.00;;;0.63;;
37873;SDS011;23709;48.078;11.684;2023-09-19T15:36:24;1.23;;;0.70;;
37873;SDS011;23709;48.078;11.684;2023-09-19T15:41:33;3.00;;;0.77;;
37873;SDS011;23709;48.078;11.684;2023-09-19T15:44:15;1.13;;;0.70;;
37873;SDS011;23709;48.078;11.684;2023-09-19T15:46:48;0.73;;;0.50;;
37873;SDS011;23709;48.078;11.684;2023-09-19T15:51:55;1.40;;;0.68;;
37873;SDS011;23709;48.078;11.684;2023-09-19T15:54:27;3.50;;;0.77;;
37873;SDS011;23709;48.078;11.684;2023-09-19T15:57:01;0.85;;;0.73;;
37873;SDS011;23709;48.078;11.684;2023-09-19T15:59:35;2.67;;;1.00;;
37873;SDS011;23709;48.078;11.684;2023-09-19T16:02:08;0.90;;;0.68;;
37873;SDS011;23709;48.078;11.684;2023-09-19T16:04:40;1.67;;;0.80;;
37873;SDS011;23709;48.078;11.684;2023-09-19T16:07:16;3.55;;;0.70;;
37873;SDS011;23709;48.078;11.684;2023-09-19T16:09:51;1.42;;;0.70;;
37873;SDS011;23709;48.078;11.684;2023-09-19T16:12:24;1.67;;;0.80;;
37873;SDS011;23709;48.078;11.684;2023-09-19T16:14:56;1.33;;;0.65;;
37873;SDS011;23709;48.078;11.684;2023-09-19T16:17:29;1.90;;;0.80;;
37873;SDS011;23709;48.078;11.684;2023-09-19T16:20:02;1.10;;;0.80;;
37873;SDS011;23709;48.078;11.684;2023-09-19T16:22:34;1.27;;;0.70;;
37873;SDS011;23709;48.078;11.684;2023-09-19T16:25:07;3.25;;;1.13;;
37873;SDS011;23709;48.078;11.684;2023-09-19T16:27:43;1.83;;;0.90;;
37873;SDS011;23709;48.078;11.684;2023-09-19T16:30:16;2.27;;;0.80;;
37873;SDS011;23709;48.078;11.684;2023-09-19T16:32:50;3.67;;;1.13;;
37873;SDS011;23709;48.078;11.684;2023-09-19T16:35:22;2.93;;;0.90;;
37873;SDS011;23709;48.078;11.684;2023-09-19T16:37:54;2.78;;;1.20;;
37873;SDS011;23709;48.078;11.684;2023-09-19T16:40:27;1.95;;;1.10;;
37873;SDS011;23709;48.078;11.684;2023-09-19T16:42:59;1.85;;;1.27;;